Time;durP1;ratioP1;P1;durP2;ratioP2;P2;SDS_P1;SDS_P2;PMS_P1;PMS_P2;Temp;Humidity;BMP_temperature;BMP_pressure;BME280_temperature;BME280_humidity;BME280_pressure;Samples;Min_cycle;Max_cycle;Signal;HPM_P1;HPM_P2
2023/07/24 00:01:10;;;;;;;3.65;3.35;;;16.90;99.90;;;;;;4988412;28;20061;-81
2023/07/24 00:03:36;;;;;;;5.00;3.88;;;16.90;99.90;;;;;;4993116;28;20142;-79
2023/07/24 00:06:02;;;;;;;4.13;3.75;;;16.90;99.90;;;;;;4978727;28;20018;-80
2023/07/24 00:08:27;;;;;;;4.03;3.70;;;16.90;99.90;;;;;;5010220;28;20106;-81
2023/07/24 00:10:53;;;;;;;4.45;4.05;;;16.90;99.90;;;;;;4985125;28;20061;-80
2023/07/24 00:13:19;;;;;;;5.40;3.42;;;16.90;99.90;;;;;;4983296;28;20108;-79
2023/07/24 00:15:44;;;;;;;4.80;3.95;;;16.90;99.90;;;;;;5005028;28;20029;-80
2023/07/24 00:18:10;;;;;;;5.45;4.43;;;16.90;99.90;;;;;;5006447;28;20026;-80
2023/07/24 00:20:35;;;;;;;3.53;3.22;;;16.80;99.90;;;;;;5003470;28;20029;-80
2023/07/24 00:23:01;;;;;;;4.03;3.08;;;16.80;99.90;;;;;;4995096;28;20021;-80
2023/07/24 00:25:26;;;;;;;3.92;3.60;;;16.80;99.90;;;;;;5002599;28;20081;-80
2023/07/24 00:27:52;;;;;;;3.28;2.97;;;16.80;99.90;;;;;;4987978;28;20121;-80
2023/07/24 00:30:17;;;;;;;4.32;3.92;;;16.90;99.90;;;;;;4986598;28;20467;-79
2023/07/24 00:32:43;;;;;;;5.00;3.25;;;16.90;99.90;;;;;;5003585;28;20073;-79
2023/07/24 00:35:09;;;;;;;4.38;3.88;;;16.90;99.90;;;;;;5005675;28;20053;-80
2023/07/24 00:37:35;;;;;;;5.15;3.78;;;16.90;99.90;;;;;;4986083;28;20034;-80
2023/07/24 00:40:00;;;;;;;4.15;3.75;;;16.90;99.90;;;;;;4986489;28;20041;-79
2023/07/24 00:42:26;;;;;;;3.97;3.58;;;16.80;99.90;;;;;;5001876;28;20022;-80
2023/07/24 00:44:52;;;;;;;4.68;3.60;;;16.80;99.90;;;;;;4985629;28;20499;-80
2023/07/24 00:47:18;;;;;;;5.88;3.70;;;16.80;99.90;;;;;;4984168;28;20023;-79
2023/07/24 00:49:44;;;;;;;3.97;3.50;;;16.80;99.90;;;;;;4991511;28;20042;-79
2023/07/24 00:52:10;;;;;;;3.63;3.33;;;16.80;99.90;;;;;;4978478;28;20022;-81
2023/07/24 00:54:37;;;;;;;5.35;3.40;;;16.80;99.90;;;;;;5002290;28;20076;-81
2023/07/24 00:57:04;;;;;;;4.43;3.28;;;16.70;99.90;;;;;;5004494;28;20477;-81
2023/07/24 00:59:30;;;;;;;4.30;3.90;;;16.70;99.90;;;;;;4972615;28;20073;-79
2023/07/24 01:01:56;;;;;;;4.95;3.92;;;16.80;99.90;;;;;;4989099;28;20118;-79
2023/07/24 01:04:22;;;;;;;4.43;3.78;;;16.80;99.90;;;;;;4978508;28;20116;-79
2023/07/24 01:06:47;;;;;;;4.47;4.07;;;16.80;99.90;;;;;;4983330;28;20022;-80
2023/07/24 01:09:13;;;;;;;4.55;4.10;;;16.90;99.90;;;;;;5002414;28;20026;-80
2023/07/24 01:11:54;;;;;;;5.55;3.83;;;16.90;99.90;;;;;;4982457;28;20477;-79
2023/07/24 01:14:35;;;;;;;4.65;4.25;;;16.90;99.90;;;;;;4978440;28;20087;-79
2023/07/24 01:17:01;;;;;;;4.45;3.63;;;16.90;99.90;;;;;;5000731;28;20076;-79
2023/07/24 01:19:42;;;;;;;5.65;4.60;;;16.90;99.90;;;;;;5000567;28;20076;-79
2023/07/24 01:22:22;;;;;;;7.00;4.10;;;16.90;99.90;;;;;;4995746;28;20022;-78
2023/07/24 01:24:55;;;;;;;5.85;4.65;;;16.90;99.90;;;;;;4984966;28;20018;-79
2023/07/24 01:27:24;;;;;;;5.07;4.57;;;16.90;99.90;;;;;;4990801;28;20022;-79
2023/07/24 01:29:49;;;;;;;5.43;4.93;;;16.90;99.90;;;;;;4998306;28;20081;-79
2023/07/24 01:32:15;;;;;;;4.60;4.10;;;16.90;99.90;;;;;;4996418;28;20066;-79
2023/07/24 01:34:41;;;;;;;5.80;5.20;;;16.90;99.90;;;;;;5008390;28;20037;-79
2023/07/24 01:37:06;;;;;;;5.63;5.10;;;16.90;99.90;;;;;;4980133;28;20495;-80
2023/07/24 01:39:33;;;;;;;5.72;5.22;;;16.90;99.90;;;;;;4981151;28;20032;-80
2023/07/24 01:41:59;;;;;;;7.05;6.13;;;16.90;99.90;;;;;;4998776;28;20103;-78
2023/07/24 01:44:25;;;;;;;6.68;6.07;;;16.90;99.90;;;;;;4996956;28;20481;-79
2023/07/24 01:46:50;;;;;;;6.10;5.53;;;16.90;99.90;;;;;;4986984;28;20031;-79
2023/07/24 01:49:16;;;;;;;6.20;5.47;;;16.90;99.90;;;;;;4996887;28;20054;-79
2023/07/24 01:51:41;;;;;;;5.68;5.18;;;16.90;99.90;;;;;;5005189;28;20021;-79
2023/07/24 01:54:07;;;;;;;6.40;5.80;;;16.90;99.90;;;;;;4997120;28;20034;-79
2023/07/24 01:56:35;;;;;;;6.03;5.32;;;16.90;99.90;;;;;;4998803;28;20038;-79
2023/07/24 01:59:01;;;;;;;5.47;4.97;;;16.90;99.90;;;;;;5001592;28;20033;-80
2023/07/24 02:01:26;;;;;;;6.13;5.50;;;16.90;99.90;;;;;;4992014;28;20034;-79
2023/07/24 02:03:52;;;;;;;6.55;5.28;;;16.90;99.90;;;;;;4998693;28;20038;-80
2023/07/24 02:06:17;;;;;;;7.22;5.93;;;16.90;99.90;;;;;;4997438;28;20081;-79
2023/07/24 02:08:48;;;;;;;5.47;4.97;;;16.90;99.90;;;;;;5005285;28;20022;-80
2023/07/24 02:11:17;;;;;;;5.97;5.38;;;16.90;99.90;;;;;;4999393;28;20477;-79
2023/07/24 02:13:46;;;;;;;5.35;4.78;;;16.90;99.90;;;;;;4980855;28;20034;-79
2023/07/24 02:16:13;;;;;;;5.43;4.93;;;16.90;99.90;;;;;;4997983;28;20157;-79
2023/07/24 02:18:41;;;;;;;5.60;4.75;;;16.90;99.90;;;;;;4999505;28;20037;-79
2023/07/24 02:21:06;;;;;;;5.63;5.10;;;16.90;99.90;;;;;;4982807;28;20117;-79
2023/07/24 02:23:32;;;;;;;4.80;4.28;;;16.90;99.90;;;;;;4999283;28;20105;-79
2023/07/24 02:25:58;;;;;;;5.30;4.75;;;16.80;99.90;;;;;;4981820;28;20022;-80
2023/07/24 02:28:23;;;;;;;5.60;4.95;;;16.90;99.90;;;;;;4995777;28;20030;-80
2023/07/24 02:30:50;;;;;;;4.88;4.45;;;16.80;99.90;;;;;;4983158;28;20049;-79
2023/07/24 02:33:15;;;;;;;5.53;4.90;;;16.80;99.90;;;;;;5000850;28;20026;-79
2023/07/24 02:35:42;;;;;;;5.40;4.90;;;16.90;99.90;;;;;;4996183;28;20041;-78
2023/07/24 02:38:08;;;;;;;4.95;4.50;;;16.90;99.90;;;;;;5001298;28;20544;-79
2023/07/24 02:40:35;;;;;;;4.63;4.15;;;16.90;99.90;;;;;;4999326;28;20084;-79
2023/07/24 02:43:00;;;;;;;4.63;4.22;;;16.90;99.90;;;;;;4983821;28;20033;-81
2023/07/24 02:45:26;;;;;;;5.13;4.70;;;16.90;99.90;;;;;;5000185;28;20022;-78
2023/07/24 02:47:51;;;;;;;6.22;4.93;;;16.90;99.90;;;;;;5000614;28;20022;-79
2023/07/24 02:50:17;;;;;;;5.95;5.00;;;16.90;99.90;;;;;;4983037;28;20025;-79
2023/07/24 02:52:42;;;;;;;6.25;5.60;;;16.90;99.90;;;;;;4982246;28;20034;-79
2023/07/24 02:55:08;;;;;;;6.35;5.75;;;16.80;99.90;;;;;;5007897;28;20052;-80
2023/07/24 02:57:33;;;;;;;5.70;5.20;;;16.80;99.90;;;;;;4999721;28;20543;-80
2023/07/24 02:59:59;;;;;;;6.65;5.82;;;16.80;99.90;;;;;;5001785;28;20465;-79
2023/07/24 03:02:24;;;;;;;7.25;6.53;;;16.80;99.90;;;;;;5000203;28;20038;-79
2023/07/24 03:04:50;;;;;;;6.80;6.20;;;16.80;99.90;;;;;;4979384;28;20101;-80
2023/07/24 03:07:16;;;;;;;7.05;6.35;;;16.80;99.90;;;;;;4986587;28;20060;-79
2023/07/24 03:09:41;;;;;;;8.10;6.55;;;16.80;99.90;;;;;;5002621;28;20095;-79
2023/07/24 03:12:07;;;;;;;7.25;6.47;;;16.80;99.90;;;;;;4988269;28;20026;-79
2023/07/24 03:14:32;;;;;;;7.82;7.13;;;16.80;99.90;;;;;;5002637;28;20034;-81
2023/07/24 03:16:58;;;;;;;7.30;6.53;;;16.80;99.90;;;;;;4987610;28;20492;-79
2023/07/24 03:19:23;;;;;;;10.32;7.40;;;16.80;99.90;;;;;;4986796;28;20095;-79
2023/07/24 03:21:49;;;;;;;8.00;7.28;;;16.80;99.90;;;;;;4982110;28;20023;-80
2023/07/24 03:24:16;;;;;;;8.10;7.40;;;16.80;99.90;;;;;;5004644;28;20028;-80
2023/07/24 03:26:41;;;;;;;7.47;6.78;;;16.80;99.90;;;;;;4983303;28;20025;-79
2023/07/24 03:29:07;;;;;;;10.18;7.00;;;16.80;99.90;;;;;;5000435;28;20034;-79
2023/07/24 03:31:32;;;;;;;8.27;7.00;;;16.80;99.90;;;;;;5001614;28;20022;-79
2023/07/24 03:33:58;;;;;;;8.35;7.55;;;16.80;99.90;;;;;;4986059;28;20018;-79
2023/07/24 03:36:23;;;;;;;8.02;7.10;;;16.80;99.90;;;;;;4985820;28;20505;-79
2023/07/24 03:38:49;;;;;;;7.03;6.32;;;16.80;99.90;;;;;;5000977;28;20535;-80
2023/07/24 03:41:14;;;;;;;7.63;6.93;;;16.80;99.90;;;;;;4987531;28;20505;-79
2023/07/24 03:43:40;;;;;;;7.68;6.82;;;16.90;99.90;;;;;;4983019;28;20036;-79
2023/07/24 03:46:05;;;;;;;7.35;6.50;;;16.90;99.90;;;;;;4986212;28;20032;-79
2023/07/24 03:48:31;;;;;;;7.50;6.68;;;16.90;99.90;;;;;;5001115;28;20496;-79
2023/07/24 03:51:00;;;;;;;7.35;6.65;;;16.90;99.90;;;;;;5003933;28;20022;-78
2023/07/24 03:53:26;;;;;;;6.63;5.95;;;16.90;99.90;;;;;;5001607;28;20048;-79
2023/07/24 03:55:52;;;;;;;6.95;6.13;;;16.90;99.90;;;;;;4984679;28;20030;-79
2023/07/24 03:58:17;;;;;;;6.60;5.85;;;16.90;99.90;;;;;;5005827;28;20044;-79
2023/07/24 04:00:43;;;;;;;8.57;6.47;;;16.90;99.90;;;;;;4982156;28;20037;-80
2023/07/24 04:03:09;;;;;;;7.30;6.53;;;17.00;99.90;;;;;;5004667;28;20034;-80
2023/07/24 04:05:35;;;;;;;7.10;6.40;;;17.00;99.90;;;;;;4983565;28;20501;-79
2023/07/24 04:08:00;;;;;;;9.40;6.50;;;17.00;99.90;;;;;;4999868;28;20478;-79
2023/07/24 04:10:27;;;;;;;7.82;6.13;;;17.00;99.90;;;;;;4999601;28;20043;-78
2023/07/24 04:12:53;;;;;;;6.70;6.00;;;17.00;99.90;;;;;;4977555;28;20022;-79
2023/07/24 04:15:18;;;;;;;8.23;6.60;;;17.00;99.90;;;;;;4980989;28;20027;-79
2023/07/24 04:17:44;;;;;;;7.43;5.65;;;17.00;99.90;;;;;;4988777;28;20668;-79
2023/07/24 04:20:10;;;;;;;6.53;5.93;;;17.00;99.90;;;;;;4999295;28;20061;-79
2023/07/24 04:22:35;;;;;;;5.68;5.18;;;17.00;99.90;;;;;;4985195;28;20033;-78
2023/07/24 04:25:01;;;;;;;7.88;5.78;;;17.00;99.90;;;;;;4983750;28;20014;-79
2023/07/24 04:27:27;;;;;;;7.47;5.90;;;17.10;99.90;;;;;;5000382;28;20029;-81
2023/07/24 04:29:52;;;;;;;6.05;5.45;;;17.10;99.90;;;;;;5005754;28;20760;-79
2023/07/24 04:32:18;;;;;;;10.38;5.60;;;17.10;99.90;;;;;;4981250;28;20160;-80
2023/07/24 04:34:43;;;;;;;6.35;5.40;;;17.10;99.90;;;;;;5005322;28;21273;-79
2023/07/24 04:37:09;;;;;;;6.50;5.65;;;17.10;99.90;;;;;;4998452;28;20022;-78
2023/07/24 04:39:34;;;;;;;6.28;4.95;;;17.10;99.90;;;;;;4999614;28;20093;-78
2023/07/24 04:42:00;;;;;;;6.80;5.43;;;17.10;99.90;;;;;;5003389;28;20084;-79
2023/07/24 04:44:26;;;;;;;6.13;5.53;;;17.10;99.90;;;;;;4997879;28;20033;-80
2023/07/24 04:46:51;;;;;;;7.13;5.47;;;17.10;99.90;;;;;;5005304;28;20097;-80
2023/07/24 04:49:17;;;;;;;6.65;5.63;;;17.10;99.90;;;;;;4980602;28;20023;-79
2023/07/24 04:51:42;;;;;;;11.18;5.97;;;17.10;99.90;;;;;;5005703;28;20026;-80
2023/07/24 04:54:08;;;;;;;6.03;5.38;;;17.10;99.90;;;;;;5000868;28;20088;-78
2023/07/24 04:56:33;;;;;;;6.45;5.85;;;17.10;99.90;;;;;;4999580;28;20465;-78
2023/07/24 04:58:59;;;;;;;6.25;5.65;;;17.10;99.90;;;;;;4999125;28;20394;-78
2023/07/24 05:01:24;;;;;;;6.75;6.10;;;17.10;99.90;;;;;;4997815;28;20504;-80
2023/07/24 05:03:50;;;;;;;6.50;5.22;;;17.10;99.90;;;;;;4986544;28;20026;-79
2023/07/24 05:06:15;;;;;;;6.10;5.50;;;17.20;99.90;;;;;;4980094;28;20046;-78
2023/07/24 05:08:41;;;;;;;6.05;5.32;;;17.20;99.90;;;;;;5003746;28;20022;-78
2023/07/24 05:11:06;;;;;;;7.38;6.05;;;17.20;99.90;;;;;;5001096;28;20022;-79
2023/07/24 05:13:32;;;;;;;7.70;5.57;;;17.20;99.90;;;;;;4998991;28;20533;-79
2023/07/24 05:15:58;;;;;;;5.57;5.07;;;17.30;99.90;;;;;;5000712;28;20109;-79
2023/07/24 05:18:23;;;;;;;6.03;5.43;;;17.30;99.90;;;;;;5001164;28;20022;-79
2023/07/24 05:20:51;;;;;;;5.78;5.20;;;17.30;99.90;;;;;;5001011;28;20026;-78
2023/07/24 05:23:16;;;;;;;6.13;5.57;;;17.30;99.90;;;;;;4981969;28;20025;-80
2023/07/24 05:25:42;;;;;;;6.88;5.18;;;17.40;99.90;;;;;;4999448;28;20026;-79
2023/07/24 05:28:08;;;;;;;7.80;5.50;;;17.40;99.90;;;;;;5000738;28;20030;-79
2023/07/24 05:30:34;;;;;;;8.63;5.45;;;17.40;99.90;;;;;;4981432;28;20022;-79
2023/07/24 05:33:00;;;;;;;7.13;5.65;;;17.50;99.90;;;;;;4983668;28;20497;-79
2023/07/24 05:35:25;;;;;;;5.85;5.10;;;17.60;99.90;;;;;;5001186;28;20145;-78
2023/07/24 05:37:51;;;;;;;6.90;5.65;;;17.70;99.90;;;;;;5000907;28;20104;-78
2023/07/24 05:40:16;;;;;;;6.82;5.45;;;17.70;99.90;;;;;;5000130;28;20030;-79
2023/07/24 05:42:43;;;;;;;9.27;5.70;;;17.80;99.90;;;;;;5000283;28;20029;-79
2023/07/24 05:45:09;;;;;;;7.03;5.65;;;17.90;99.90;;;;;;4984150;28;20022;-79
2023/07/24 05:47:35;;;;;;;5.70;5.20;;;18.00;99.90;;;;;;5000069;28;20049;-78
2023/07/24 05:50:00;;;;;;;6.72;5.85;;;18.00;99.90;;;;;;4988235;28;20022;-79
2023/07/24 05:52:26;;;;;;;5.93;5.32;;;18.10;99.90;;;;;;5004675;28;20022;-78
2023/07/24 05:54:51;;;;;;;6.25;5.60;;;18.10;99.90;;;;;;4999166;28;20025;-79
2023/07/24 05:57:17;;;;;;;8.20;5.47;;;18.10;99.90;;;;;;4999871;28;20022;-77
2023/07/24 05:59:42;;;;;;;6.78;5.85;;;18.10;99.90;;;;;;4981475;28;20031;-79
2023/07/24 06:02:09;;;;;;;6.30;5.70;;;18.10;99.90;;;;;;4999653;28;20033;-78
2023/07/24 06:04:34;;;;;;;6.45;5.47;;;18.20;99.90;;;;;;4998469;28;20030;-79
2023/07/24 06:07:00;;;;;;;6.70;6.05;;;18.20;99.90;;;;;;5000478;28;20031;-79
2023/07/24 06:09:25;;;;;;;6.25;5.63;;;18.20;99.90;;;;;;4982024;28;20463;-78
2023/07/24 06:11:51;;;;;;;7.30;5.32;;;18.20;99.90;;;;;;4978662;28;20436;-78
2023/07/24 06:14:20;;;;;;;6.70;5.72;;;18.20;99.90;;;;;;4978037;28;20118;-79
2023/07/24 06:16:46;;;;;;;6.90;6.20;;;18.20;99.90;;;;;;5001458;28;20026;-79
2023/07/24 06:19:11;;;;;;;7.05;5.93;;;18.30;99.90;;;;;;4998985;28;20036;-79
2023/07/24 06:21:37;;;;;;;6.35;5.75;;;18.50;99.90;;;;;;4980512;28;20088;-79
2023/07/24 06:24:02;;;;;;;6.13;5.53;;;18.70;99.90;;;;;;4982280;28;20397;-78
2023/07/24 06:26:29;;;;;;;6.18;5.57;;;18.80;99.90;;;;;;4981824;28;20060;-78
2023/07/24 06:28:54;;;;;;;6.07;5.47;;;18.90;99.90;;;;;;4977464;28;20045;-78
2023/07/24 06:31:20;;;;;;;7.28;5.65;;;18.90;99.90;;;;;;4999869;28;20030;-78
2023/07/24 06:33:46;;;;;;;5.78;5.28;;;19.00;99.90;;;;;;4999835;28;20018;-79
2023/07/24 06:36:12;;;;;;;6.32;5.72;;;19.00;99.90;;;;;;4983457;28;20493;-79
2023/07/24 06:38:37;;;;;;;7.20;6.50;;;19.00;99.90;;;;;;4999381;28;20018;-80
2023/07/24 06:41:03;;;;;;;6.63;5.93;;;18.90;99.90;;;;;;5001967;28;20026;-80
2023/07/24 06:43:28;;;;;;;9.43;6.32;;;18.90;99.90;;;;;;4983211;28;20022;-79
2023/07/24 06:45:54;;;;;;;5.82;5.22;;;18.90;99.90;;;;;;5004532;28;20026;-79
2023/07/24 06:48:20;;;;;;;5.97;5.38;;;18.80;99.90;;;;;;4986844;28;20488;-80
2023/07/24 06:50:45;;;;;;;8.85;6.05;;;18.90;99.90;;;;;;5003951;28;20014;-80
2023/07/24 06:53:11;;;;;;;7.50;6.05;;;18.80;99.90;;;;;;5004143;28;20404;-80
2023/07/24 06:55:36;;;;;;;5.78;5.28;;;18.80;99.90;;;;;;5004653;28;20068;-79
2023/07/24 06:58:02;;;;;;;5.93;5.38;;;18.80;99.90;;;;;;5004358;28;20123;-78
2023/07/24 07:00:27;;;;;;;6.32;5.53;;;18.70;99.90;;;;;;5002743;28;20048;-77
2023/07/24 07:02:53;;;;;;;7.05;5.68;;;18.80;99.90;;;;;;5003383;28;20119;-80
2023/07/24 07:05:18;;;;;;;7.07;5.78;;;18.70;99.90;;;;;;5002363;28;20026;-79
2023/07/24 07:07:44;;;;;;;6.50;5.57;;;18.70;99.90;;;;;;4983803;28;20030;-79
2023/07/24 07:10:10;;;;;;;6.18;5.50;;;18.70;99.90;;;;;;4982696;28;20022;-78
2023/07/24 07:12:35;;;;;;;9.57;6.30;;;18.70;99.90;;;;;;5000229;28;20026;-79
2023/07/24 07:15:01;;;;;;;6.75;6.05;;;18.60;99.90;;;;;;4981518;28;20177;-79
2023/07/24 07:17:26;;;;;;;5.47;4.97;;;18.60;99.90;;;;;;4990884;28;20607;-79
2023/07/24 07:19:52;;;;;;;6.10;4.95;;;18.60;99.90;;;;;;4982239;28;20022;-79
2023/07/24 07:22:17;;;;;;;6.50;5.90;;;18.60;99.90;;;;;;4999220;28;20030;-79
2023/07/24 07:24:43;;;;;;;7.53;6.40;;;18.60;99.90;;;;;;4983774;28;20026;-79
2023/07/24 07:27:09;;;;;;;6.15;5.55;;;18.50;99.90;;;;;;5001270;28;20425;-79
2023/07/24 07:29:34;;;;;;;6.28;5.38;;;18.50;99.90;;;;;;4984477;28;20093;-79
2023/07/24 07:32:00;;;;;;;6.43;5.00;;;18.40;99.90;;;;;;4984597;28;20458;-78
2023/07/24 07:34:26;;;;;;;7.03;5.18;;;18.50;99.90;;;;;;5006925;28;20712;-79
2023/07/24 07:36:51;;;;;;;7.25;5.97;;;18.50;99.90;;;;;;4977158;28;20044;-79
2023/07/24 07:39:17;;;;;;;6.10;5.50;;;18.50;99.90;;;;;;4999778;28;20023;-79
2023/07/24 07:41:43;;;;;;;7.78;5.68;;;18.60;99.90;;;;;;4988664;28;20036;-78
2023/07/24 07:44:08;;;;;;;6.07;5.50;;;18.60;99.90;;;;;;4983988;28;20019;-80
2023/07/24 07:46:34;;;;;;;8.25;5.40;;;18.70;99.90;;;;;;4989149;28;20030;-79
2023/07/24 07:48:59;;;;;;;5.68;5.15;;;18.80;99.90;;;;;;4981230;28;20030;-79
2023/07/24 07:51:26;;;;;;;5.35;4.85;;;18.80;99.90;;;;;;5004828;28;20075;-78
2023/07/24 07:53:51;;;;;;;6.82;6.07;;;18.90;99.90;;;;;;4998955;28;20078;-78
2023/07/24 07:56:17;;;;;;;5.75;5.30;;;19.00;99.90;;;;;;4999690;28;20153;-78
2023/07/24 07:58:42;;;;;;;6.20;5.18;;;19.10;99.90;;;;;;5005822;28;20034;-78
2023/07/24 08:01:08;;;;;;;6.30;5.55;;;19.10;99.90;;;;;;4984283;28;20045;-78
2023/07/24 08:03:34;;;;;;;6.53;5.32;;;19.20;99.90;;;;;;5006373;28;20041;-79
2023/07/24 08:06:00;;;;;;;6.82;5.65;;;19.30;99.90;;;;;;4998713;28;20097;-78
2023/07/24 08:08:26;;;;;;;6.43;5.75;;;19.30;99.90;;;;;;4999786;28;20105;-78
2023/07/24 08:10:51;;;;;;;5.10;4.60;;;19.40;99.90;;;;;;5001298;28;20179;-78
2023/07/24 08:13:17;;;;;;;6.90;5.43;;;19.40;99.90;;;;;;5001768;28;20500;-78
2023/07/24 08:15:42;;;;;;;5.43;4.93;;;19.40;99.90;;;;;;4983713;28;20104;-79
2023/07/24 08:18:08;;;;;;;7.07;5.28;;;19.40;99.90;;;;;;4986971;28;20028;-79
2023/07/24 08:20:37;;;;;;;6.15;5.55;;;19.40;99.90;;;;;;5000761;28;20022;-78
2023/07/24 08:23:03;;;;;;;6.13;5.60;;;19.30;99.90;;;;;;4983468;28;20032;-78
2023/07/24 08:25:28;;;;;;;5.53;5.05;;;19.30;99.90;;;;;;5000222;28;20030;-79
2023/07/24 08:27:54;;;;;;;8.05;5.55;;;19.30;99.90;;;;;;4985043;28;20369;-79
2023/07/24 08:30:19;;;;;;;6.65;4.82;;;19.30;99.90;;;;;;5001210;28;20064;-78
2023/07/24 08:32:45;;;;;;;6.72;6.13;;;19.40;99.90;;;;;;5001812;28;20050;-78
2023/07/24 08:35:11;;;;;;;6.13;5.47;;;19.30;99.90;;;;;;5003693;28;20543;-79
2023/07/24 08:37:36;;;;;;;5.85;5.30;;;19.40;99.90;;;;;;4982894;28;20585;-79
2023/07/24 08:40:02;;;;;;;6.25;5.50;;;19.40;99.90;;;;;;5000984;28;20021;-78
2023/07/24 08:42:29;;;;;;;6.70;5.50;;;19.50;99.90;;;;;;4985520;28;20029;-78
2023/07/24 08:44:56;;;;;;;6.13;5.32;;;19.50;99.90;;;;;;5001270;28;20733;-79
2023/07/24 08:47:23;;;;;;;5.82;5.22;;;19.50;99.90;;;;;;5001497;28;20434;-78
2023/07/24 08:49:50;;;;;;;6.20;4.85;;;19.60;99.90;;;;;;5001807;28;20025;-78
2023/07/24 08:52:16;;;;;;;7.68;5.40;;;19.70;99.90;;;;;;4985047;28;20026;-79
2023/07/24 08:54:43;;;;;;;5.70;5.07;;;19.90;99.90;;;;;;4982520;28;20113;-79
2023/07/24 08:57:08;;;;;;;6.07;5.43;;;20.00;99.90;;;;;;5001914;28;20133;-78
2023/07/24 08:59:35;;;;;;;5.50;5.00;;;20.00;99.90;;;;;;5000184;28;20117;-78
2023/07/24 09:02:00;;;;;;;5.50;5.10;;;20.00;99.90;;;;;;5001077;28;20034;-79
2023/07/24 09:04:26;;;;;;;6.18;5.45;;;19.90;99.90;;;;;;4982135;28;20447;-79
2023/07/24 09:06:53;;;;;;;6.15;5.55;;;19.90;99.90;;;;;;5003369;28;20428;-79
2023/07/24 09:09:19;;;;;;;7.30;5.32;;;19.90;99.90;;;;;;4999945;28;20103;-78
2023/07/24 09:11:51;;;;;;;5.82;5.22;;;19.90;99.90;;;;;;4999860;28;20523;-79
2023/07/24 09:14:24;;;;;;;5.70;5.03;;;20.10;99.90;;;;;;4998588;28;20101;-79
2023/07/24 09:16:52;;;;;;;6.60;5.32;;;20.20;99.90;;;;;;5001199;28;20022;-78
2023/07/24 09:19:19;;;;;;;5.93;5.32;;;20.30;99.90;;;;;;5001361;28;20044;-80
2023/07/24 09:21:45;;;;;;;5.97;5.30;;;20.30;99.90;;;;;;4996869;28;20022;-80
2023/07/24 09:24:14;;;;;;;5.40;4.90;;;20.60;99.90;;;;;;5002077;28;20048;-79
2023/07/24 09:26:51;;;;;;;5.80;5.28;;;20.80;99.90;;;;;;4975983;28;20065;-77
2023/07/24 09:29:17;;;;;;;6.55;5.13;;;20.90;99.90;;;;;;5003909;28;20030;-79
2023/07/24 09:31:43;;;;;;;4.70;4.30;;;21.00;99.90;;;;;;5002803;28;20116;-79
2023/07/24 09:34:18;;;;;;;5.88;4.63;;;21.00;99.90;;;;;;5003135;28;20393;-79
2023/07/24 09:36:45;;;;;;;5.53;4.55;;;21.00;99.90;;;;;;4978162;28;20083;-78
2023/07/24 09:39:11;;;;;;;4.85;4.38;;;21.00;99.90;;;;;;4997489;28;20096;-78
2023/07/24 09:41:39;;;;;;;5.95;4.65;;;20.90;99.90;;;;;;4986247;28;20026;-79
2023/07/24 09:44:04;;;;;;;6.18;4.82;;;20.90;99.90;;;;;;4996084;28;20042;-78
2023/07/24 09:46:31;;;;;;;4.97;4.55;;;20.90;99.90;;;;;;5001473;28;20014;-78
2023/07/24 09:48:58;;;;;;;5.47;4.97;;;20.80;99.90;;;;;;4998265;28;20026;-77
2023/07/24 09:51:24;;;;;;;5.68;4.85;;;20.80;99.90;;;;;;5005304;28;20029;-78
2023/07/24 09:54:01;;;;;;;6.95;4.90;;;20.80;99.90;;;;;;4996605;28;20036;-77
2023/07/24 09:56:28;;;;;;;5.00;4.20;;;20.90;99.90;;;;;;4997911;28;20034;-79
2023/07/24 09:58:55;;;;;;;6.65;4.45;;;20.90;99.90;;;;;;5002960;28;20093;-79
2023/07/24 10:01:22;;;;;;;4.78;4.32;;;20.90;99.90;;;;;;4993350;28;20150;-77
2023/07/24 10:03:49;;;;;;;5.65;5.07;;;21.00;99.90;;;;;;5003809;28;20521;-79
2023/07/24 10:06:16;;;;;;;8.13;3.88;;;21.20;99.90;;;;;;4997650;28;20030;-78
2023/07/24 10:08:42;;;;;;;8.43;5.30;;;21.30;99.90;;;;;;4999542;28;20045;-78
2023/07/24 10:11:14;;;;;;;4.50;4.07;;;21.40;99.90;;;;;;5000166;28;20485;-79
2023/07/24 10:13:41;;;;;;;5.32;4.82;;;21.40;99.90;;;;;;4997667;28;20165;-80
2023/07/24 10:16:07;;;;;;;4.80;4.25;;;21.40;99.90;;;;;;4983129;28;20102;-78
2023/07/24 10:18:42;;;;;;;6.85;4.72;;;21.40;99.90;;;;;;5001461;28;20019;-78
2023/07/24 10:21:10;;;;;;;4.32;3.92;;;21.30;99.90;;;;;;5002969;28;20033;-78
2023/07/24 10:23:43;;;;;;;5.68;4.80;;;21.30;99.90;;;;;;4983720;28;20030;-78
2023/07/24 10:26:10;;;;;;;4.40;4.00;;;21.20;99.90;;;;;;5001649;28;20018;-78
2023/07/24 10:28:38;;;;;;;4.65;4.25;;;21.10;99.90;;;;;;5003687;28;20022;-79
2023/07/24 10:31:21;;;;;;;4.93;4.43;;;21.00;99.90;;;;;;4986328;28;20041;-78
2023/07/24 10:33:47;;;;;;;5.38;4.88;;;20.90;99.90;;;;;;5003472;28;20018;-79
2023/07/24 10:36:20;;;;;;;5.57;5.07;;;21.00;99.90;;;;;;5005352;28;20145;-79
2023/07/24 10:38:51;;;;;;;5.15;4.65;;;21.10;99.90;;;;;;4984346;28;20029;-79
2023/07/24 10:41:17;;;;;;;6.03;4.82;;;21.10;99.90;;;;;;4989880;28;20101;-79
2023/07/24 10:43:47;;;;;;;5.20;4.57;;;21.20;99.90;;;;;;5001948;28;20157;-78
2023/07/24 10:46:14;;;;;;;4.47;4.07;;;21.20;99.90;;;;;;5006287;28;20472;-78
2023/07/24 10:48:48;;;;;;;4.63;4.18;;;21.20;99.90;;;;;;5002076;28;20099;-78
2023/07/24 10:51:14;;;;;;;4.85;4.45;;;21.30;99.90;;;;;;5001190;28;20476;-78
2023/07/24 10:53:47;;;;;;;6.65;4.30;;;21.30;99.90;;;;;;5001814;28;20030;-78
2023/07/24 10:56:14;;;;;;;5.50;5.00;;;21.50;99.90;;;;;;5000299;28;20092;-78
2023/07/24 10:58:39;;;;;;;5.50;4.80;;;21.70;99.90;;;;;;4988582;28;20022;-78
2023/07/24 11:01:06;;;;;;;5.47;4.70;;;21.90;99.90;;;;;;4999346;28;20038;-79
2023/07/24 11:03:32;;;;;;;4.57;4.18;;;21.90;99.90;;;;;;4988759;28;20042;-78
2023/07/24 11:05:58;;;;;;;6.60;4.00;;;21.90;99.90;;;;;;4980886;28;20073;-78
2023/07/24 11:08:24;;;;;;;4.50;3.95;;;21.90;99.90;;;;;;5001069;28;20106;-76
2023/07/24 11:10:57;;;;;;;6.40;4.35;;;21.80;99.90;;;;;;5006308;28;20056;-78
2023/07/24 11:13:28;;;;;;;4.82;4.25;;;21.80;99.90;;;;;;5006508;28;20006;-78
2023/07/24 11:15:54;;;;;;;4.63;4.20;;;21.80;99.90;;;;;;4973786;28;20026;-78
2023/07/24 11:18:22;;;;;;;4.80;4.00;;;21.80;99.90;;;;;;5008785;28;20106;-77
2023/07/24 11:20:48;;;;;;;4.32;3.92;;;21.80;99.90;;;;;;5003784;28;20481;-78
2023/07/24 11:23:15;;;;;;;4.78;4.20;;;21.70;99.90;;;;;;5001978;28;20046;-78
2023/07/24 11:25:41;;;;;;;4.57;4.18;;;21.80;99.90;;;;;;4984365;28;20660;-78
2023/07/24 11:28:08;;;;;;;4.85;4.28;;;21.90;99.90;;;;;;4985538;28;20105;-77
2023/07/24 11:30:34;;;;;;;4.35;3.97;;;21.90;99.90;;;;;;5002536;28;20027;-78
2023/07/24 11:33:02;;;;;;;6.40;4.55;;;21.90;99.90;;;;;;5003864;28;20117;-78
2023/07/24 11:35:28;;;;;;;5.40;4.00;;;22.00;99.90;;;;;;4986021;28;20367;-79
2023/07/24 11:37:54;;;;;;;4.50;4.10;;;22.10;99.90;;;;;;4986098;28;20022;-77
2023/07/24 11:40:20;;;;;;;5.15;3.95;;;22.10;99.90;;;;;;5002421;28;20041;-78
2023/07/24 11:42:47;;;;;;;5.57;4.32;;;22.10;99.90;;;;;;5003839;28;20014;-77
2023/07/24 11:45:14;;;;;;;5.10;3.83;;;22.20;99.90;;;;;;5002144;28;20022;-78
2023/07/24 11:47:43;;;;;;;4.40;3.63;;;22.20;99.90;;;;;;5005069;28;20034;-78
2023/07/24 11:50:09;;;;;;;5.22;4.18;;;22.20;99.90;;;;;;5004773;28;20034;-78
2023/07/24 11:52:53;;;;;;;4.15;3.10;;;22.20;99.90;;;;;;4987291;28;20036;-78
2023/07/24 11:55:29;;;;;;;5.40;3.92;;;22.10;99.90;;;;;;4986015;28;20040;-77
2023/07/24 11:57:57;;;;;;;3.55;3.13;;;22.10;99.90;;;;;;4985788;28;20045;-78
2023/07/24 12:00:23;;;;;;;4.15;3.08;;;22.00;99.90;;;;;;4985323;28;20048;-78
2023/07/24 12:02:50;;;;;;;4.20;3.80;;;22.10;99.90;;;;;;5003053;28;20050;-79
2023/07/24 12:05:15;;;;;;;4.22;3.35;;;22.10;99.90;;;;;;4985328;28;20022;-77
2023/07/24 12:07:46;;;;;;;4.13;3.72;;;22.10;99.90;;;;;;4999848;28;20052;-78
2023/07/24 12:10:13;;;;;;;4.25;3.78;;;22.10;99.90;;;;;;4984199;28;20397;-77
2023/07/24 12:12:43;;;;;;;4.72;3.90;;;22.10;99.90;;;;;;5007127;28;20022;-78
2023/07/24 12:15:09;;;;;;;4.68;4.07;;;22.20;99.90;;;;;;4982048;28;20042;-79
2023/07/24 12:17:36;;;;;;;4.03;3.60;;;22.20;99.90;;;;;;5008832;28;20018;-79
2023/07/24 12:20:04;;;;;;;3.78;3.47;;;22.40;99.90;;;;;;4977851;28;20543;-78
2023/07/24 12:22:30;;;;;;;3.92;3.63;;;22.50;99.90;;;;;;4982608;28;20030;-78
2023/07/24 12:24:56;;;;;;;4.40;3.65;;;22.50;99.90;;;;;;5004507;28;20453;-78
2023/07/24 12:27:21;;;;;;;4.65;4.25;;;22.60;99.90;;;;;;5000134;28;20027;-77
2023/07/24 12:29:47;;;;;;;4.65;4.22;;;22.70;99.90;;;;;;5006023;28;20030;-78
2023/07/24 12:32:13;;;;;;;5.55;3.80;;;22.70;99.90;;;;;;4998537;28;20637;-79
2023/07/24 12:34:38;;;;;;;3.47;3.17;;;22.80;99.90;;;;;;4985586;28;20033;-78
2023/07/24 12:37:04;;;;;;;4.10;3.70;;;22.70;99.90;;;;;;5003243;28;20033;-78
2023/07/24 12:39:29;;;;;;;4.30;3.78;;;22.70;99.90;;;;;;4999432;28;20363;-78
2023/07/24 12:41:55;;;;;;;3.90;3.50;;;22.80;99.90;;;;;;5005643;28;20366;-78